sensor_id;sensor_type;location;lat;lon;timestamp;P1;durP1;ratioP1;P2;durP2;ratioP2
32096;SDS011;18610;49.916;8.284;2024-02-28T00:00:03;50.65;;;28.33;;
32096;SDS011;18610;49.916;8.284;2024-02-28T00:02:31;47.50;;;28.02;;
32096;SDS011;18610;49.916;8.284;2024-02-28T00:04:57;51.47;;;30.05;;
32096;SDS011;18610;49.916;8.284;2024-02-28T00:07:24;50.63;;;28.40;;
32096;SDS011;18610;49.916;8.284;2024-02-28T00:09:51;47.50;;;28.40;;
32096;SDS011;18610;49.916;8.284;2024-02-28T00:12:23;45.40;;;28.65;;
32096;SDS011;18610;49.916;8.284;2024-02-28T00:14:51;45.55;;;26.40;;
32096;SDS011;18610;49.916;8.284;2024-02-28T00:17:17;47.33;;;27.60;;
32096;SDS011;18610;49.916;8.284;2024-02-28T00:19:44;45.38;;;26.48;;
32096;SDS011;18610;49.916;8.284;2024-02-28T00:22:11;47.35;;;25.27;;
32096;SDS011;18610;49.916;8.284;2024-02-28T00:24:37;50.95;;;27.67;;
32096;SDS011;18610;49.916;8.284;2024-02-28T00:27:04;49.85;;;28.33;;
32096;SDS011;18610;49.916;8.284;2024-02-28T00:29:32;45.38;;;26.50;;
32096;SDS011;18610;49.916;8.284;2024-02-28T00:31:59;50.50;;;28.65;;
32096;SDS011;18610;49.916;8.284;2024-02-28T00:34:25;54.63;;;31.13;;
32096;SDS011;18610;49.916;8.284;2024-02-28T00:36:52;56.10;;;30.65;;
32096;SDS011;18610;49.916;8.284;2024-02-28T00:39:18;47.00;;;27.63;;
32096;SDS011;18610;49.916;8.284;2024-02-28T00:41:45;60.45;;;31.13;;
32096;SDS011;18610;49.916;8.284;2024-02-28T00:44:12;56.90;;;31.90;;
32096;SDS011;18610;49.916;8.284;2024-02-28T00:46:40;53.20;;;29.98;;
32096;SDS011;18610;49.916;8.284;2024-02-28T00:49:06;54.35;;;32.05;;
32096;SDS011;18610;49.916;8.284;2024-02-28T00:51:33;51.58;;;30.65;;
32096;SDS011;18610;49.916;8.284;2024-02-28T00:54:01;58.30;;;32.17;;
32096;SDS011;18610;49.916;8.284;2024-02-28T00:56:28;59.63;;;32.47;;
32096;SDS011;18610;49.916;8.284;2024-02-28T00:58:54;57.95;;;31.75;;
32096;SDS011;18610;49.916;8.284;2024-02-28T01:01:22;58.75;;;33.08;;
32096;SDS011;18610;49.916;8.284;2024-02-28T01:03:50;55.40;;;33.17;;
32096;SDS011;18610;49.916;8.284;2024-02-28T01:06:17;57.47;;;33.35;;
32096;SDS011;18610;49.916;8.284;2024-02-28T01:08:43;54.70;;;31.70;;
32096;SDS011;18610;49.916;8.284;2024-02-28T01:11:10;61.20;;;32.53;;
32096;SDS011;18610;49.916;8.284;2024-02-28T01:13:37;58.15;;;33.80;;
32096;SDS011;18610;49.916;8.284;2024-02-28T01:16:04;56.60;;;31.50;;
32096;SDS011;18610;49.916;8.284;2024-02-28T01:18:30;53.97;;;31.92;;
32096;SDS011;18610;49.916;8.284;2024-02-28T01:20:58;52.95;;;30.25;;
32096;SDS011;18610;49.916;8.284;2024-02-28T01:23:25;52.65;;;30.58;;
32096;SDS011;18610;49.916;8.284;2024-02-28T01:25:52;54.55;;;30.27;;
32096;SDS011;18610;49.916;8.284;2024-02-28T01:28:18;58.55;;;31.13;;
32096;SDS011;18610;49.916;8.284;2024-02-28T01:30:45;54.88;;;31.40;;
32096;SDS011;18610;49.916;8.284;2024-02-28T01:33:12;60.92;;;32.05;;
32096;SDS011;18610;49.916;8.284;2024-02-28T01:35:39;58.95;;;31.92;;
32096;SDS011;18610;49.916;8.284;2024-02-28T01:38:07;54.97;;;29.33;;
32096;SDS011;18610;49.916;8.284;2024-02-28T01:40:34;53.83;;;31.67;;
32096;SDS011;18610;49.916;8.284;2024-02-28T01:43:03;56.17;;;30.42;;
32096;SDS011;18610;49.916;8.284;2024-02-28T01:45:32;55.50;;;31.08;;
32096;SDS011;18610;49.916;8.284;2024-02-28T01:48:00;52.47;;;29.90;;
32096;SDS011;18610;49.916;8.284;2024-02-28T01:50:27;50.40;;;28.77;;
32096;SDS011;18610;49.916;8.284;2024-02-28T01:52:54;56.63;;;30.88;;
32096;SDS011;18610;49.916;8.284;2024-02-28T01:55:22;52.67;;;29.60;;
32096;SDS011;18610;49.916;8.284;2024-02-28T01:57:49;59.78;;;32.75;;
32096;SDS011;18610;49.916;8.284;2024-02-28T02:00:16;51.45;;;30.55;;
32096;SDS011;18610;49.916;8.284;2024-02-28T02:02:44;56.55;;;31.17;;
32096;SDS011;18610;49.916;8.284;2024-02-28T02:05:11;61.97;;;32.58;;
32096;SDS011;18610;49.916;8.284;2024-02-28T02:07:41;53.60;;;31.73;;
32096;SDS011;18610;49.916;8.284;2024-02-28T02:10:08;55.75;;;30.95;;
32096;SDS011;18610;49.916;8.284;2024-02-28T02:12:38;65.45;;;33.42;;
32096;SDS011;18610;49.916;8.284;2024-02-28T02:15:05;63.90;;;32.50;;
32096;SDS011;18610;49.916;8.284;2024-02-28T02:17:32;62.45;;;33.20;;
32096;SDS011;18610;49.916;8.284;2024-02-28T02:19:59;62.83;;;33.75;;
32096;SDS011;18610;49.916;8.284;2024-02-28T02:22:26;59.58;;;33.60;;
32096;SDS011;18610;49.916;8.284;2024-02-28T02:24:54;66.13;;;33.85;;
32096;SDS011;18610;49.916;8.284;2024-02-28T02:27:21;60.22;;;33.22;;
32096;SDS011;18610;49.916;8.284;2024-02-28T02:29:50;59.47;;;34.50;;
32096;SDS011;18610;49.916;8.284;2024-02-28T02:32:18;59.28;;;32.15;;
32096;SDS011;18610;49.916;8.284;2024-02-28T02:34:44;61.22;;;34.15;;
32096;SDS011;18610;49.916;8.284;2024-02-28T02:37:11;61.53;;;32.92;;
32096;SDS011;18610;49.916;8.284;2024-02-28T02:39:38;65.32;;;34.47;;
32096;SDS011;18610;49.916;8.284;2024-02-28T02:42:06;65.40;;;34.45;;
32096;SDS011;18610;49.916;8.284;2024-02-28T02:44:33;65.18;;;33.88;;
32096;SDS011;18610;49.916;8.284;2024-02-28T02:46:59;60.28;;;32.85;;
32096;SDS011;18610;49.916;8.284;2024-02-28T02:49:26;71.43;;;33.53;;
32096;SDS011;18610;49.916;8.284;2024-02-28T02:51:53;61.75;;;33.65;;
32096;SDS011;18610;49.916;8.284;2024-02-28T02:54:21;64.50;;;34.08;;
32096;SDS011;18610;49.916;8.284;2024-02-28T02:56:47;59.58;;;31.30;;
32096;SDS011;18610;49.916;8.284;2024-02-28T02:59:15;65.72;;;32.85;;
32096;SDS011;18610;49.916;8.284;2024-02-28T03:01:42;57.63;;;32.78;;
32096;SDS011;18610;49.916;8.284;2024-02-28T03:04:08;55.30;;;31.98;;
32096;SDS011;18610;49.916;8.284;2024-02-28T03:06:35;67.43;;;34.72;;
32096;SDS011;18610;49.916;8.284;2024-02-28T03:09:02;55.67;;;31.55;;
32096;SDS011;18610;49.916;8.284;2024-02-28T03:11:29;57.65;;;30.52;;
32096;SDS011;18610;49.916;8.284;2024-02-28T03:13:56;56.35;;;30.15;;
32096;SDS011;18610;49.916;8.284;2024-02-28T03:16:24;60.65;;;31.52;;
32096;SDS011;18610;49.916;8.284;2024-02-28T03:18:50;58.17;;;31.65;;
32096;SDS011;18610;49.916;8.284;2024-02-28T03:21:17;61.00;;;31.83;;
32096;SDS011;18610;49.916;8.284;2024-02-28T03:23:45;59.28;;;33.20;;
32096;SDS011;18610;49.916;8.284;2024-02-28T03:26:12;61.70;;;32.72;;
32096;SDS011;18610;49.916;8.284;2024-02-28T03:28:38;61.65;;;33.80;;
32096;SDS011;18610;49.916;8.284;2024-02-28T03:31:05;70.65;;;33.53;;
32096;SDS011;18610;49.916;8.284;2024-02-28T03:33:33;64.68;;;32.15;;
32096;SDS011;18610;49.916;8.284;2024-02-28T03:36:00;61.53;;;32.95;;
32096;SDS011;18610;49.916;8.284;2024-02-28T03:38:27;57.03;;;32.10;;
32096;SDS011;18610;49.916;8.284;2024-02-28T03:40:54;69.82;;;35.67;;
32096;SDS011;18610;49.916;8.284;2024-02-28T03:43:20;66.03;;;34.15;;
32096;SDS011;18610;49.916;8.284;2024-02-28T03:45:47;70.15;;;35.78;;
32096;SDS011;18610;49.916;8.284;2024-02-28T03:48:15;67.25;;;35.20;;
32096;SDS011;18610;49.916;8.284;2024-02-28T03:50:43;68.78;;;34.63;;
32096;SDS011;18610;49.916;8.284;2024-02-28T03:53:09;68.53;;;36.20;;
32096;SDS011;18610;49.916;8.284;2024-02-28T03:55:36;65.47;;;33.63;;
32096;SDS011;18610;49.916;8.284;2024-02-28T03:58:03;65.50;;;34.28;;
32096;SDS011;18610;49.916;8.284;2024-02-28T04:00:33;58.22;;;32.88;;
32096;SDS011;18610;49.916;8.284;2024-02-28T04:03:00;60.97;;;33.75;;
32096;SDS011;18610;49.916;8.284;2024-02-28T04:05:27;74.65;;;37.55;;
32096;SDS011;18610;49.916;8.284;2024-02-28T04:07:56;66.97;;;35.35;;
32096;SDS011;18610;49.916;8.284;2024-02-28T04:10:22;70.68;;;34.60;;
32096;SDS011;18610;49.916;8.284;2024-02-28T04:12:49;69.88;;;36.55;;
32096;SDS011;18610;49.916;8.284;2024-02-28T04:15:16;72.30;;;37.08;;
32096;SDS011;18610;49.916;8.284;2024-02-28T04:17:42;67.85;;;34.65;;
32096;SDS011;18610;49.916;8.284;2024-02-28T04:20:09;62.67;;;33.75;;
32096;SDS011;18610;49.916;8.284;2024-02-28T04:22:36;65.63;;;36.60;;
32096;SDS011;18610;49.916;8.284;2024-02-28T04:25:05;71.00;;;37.00;;
32096;SDS011;18610;49.916;8.284;2024-02-28T04:27:33;81.00;;;41.47;;
32096;SDS011;18610;49.916;8.284;2024-02-28T04:30:00;82.53;;;42.50;;
32096;SDS011;18610;49.916;8.284;2024-02-28T04:32:27;84.20;;;42.33;;
32096;SDS011;18610;49.916;8.284;2024-02-28T04:34:53;82.28;;;42.20;;
32096;SDS011;18610;49.916;8.284;2024-02-28T04:37:20;83.93;;;43.22;;
32096;SDS011;18610;49.916;8.284;2024-02-28T04:39:47;80.78;;;41.50;;
32096;SDS011;18610;49.916;8.284;2024-02-28T04:42:15;79.53;;;41.05;;
32096;SDS011;18610;49.916;8.284;2024-02-28T04:44:42;78.22;;;38.15;;
32096;SDS011;18610;49.916;8.284;2024-02-28T04:47:09;77.07;;;39.38;;
32096;SDS011;18610;49.916;8.284;2024-02-28T04:49:36;76.93;;;38.85;;
32096;SDS011;18610;49.916;8.284;2024-02-28T04:52:04;80.32;;;40.45;;
32096;SDS011;18610;49.916;8.284;2024-02-28T04:54:31;76.07;;;38.10;;
32096;SDS011;18610;49.916;8.284;2024-02-28T04:56:58;74.68;;;37.42;;
32096;SDS011;18610;49.916;8.284;2024-02-28T04:59:26;72.03;;;35.92;;
32096;SDS011;18610;49.916;8.284;2024-02-28T05:01:53;66.82;;;35.92;;
32096;SDS011;18610;49.916;8.284;2024-02-28T05:04:19;71.88;;;37.28;;
32096;SDS011;18610;49.916;8.284;2024-02-28T05:06:47;78.97;;;39.40;;
32096;SDS011;18610;49.916;8.284;2024-02-28T05:09:13;80.70;;;39.38;;
32096;SDS011;18610;49.916;8.284;2024-02-28T05:11:40;78.25;;;37.75;;
32096;SDS011;18610;49.916;8.284;2024-02-28T05:14:07;61.92;;;34.78;;
32096;SDS011;18610;49.916;8.284;2024-02-28T05:16:36;63.83;;;33.53;;
32096;SDS011;18610;49.916;8.284;2024-02-28T05:19:03;67.10;;;34.60;;
32096;SDS011;18610;49.916;8.284;2024-02-28T05:21:30;64.78;;;32.10;;
32096;SDS011;18610;49.916;8.284;2024-02-28T05:23:56;68.25;;;34.60;;
32096;SDS011;18610;49.916;8.284;2024-02-28T05:26:23;63.30;;;34.20;;
32096;SDS011;18610;49.916;8.284;2024-02-28T05:28:50;66.68;;;33.30;;
32096;SDS011;18610;49.916;8.284;2024-02-28T05:31:20;66.75;;;34.17;;
32096;SDS011;18610;49.916;8.284;2024-02-28T05:33:49;69.27;;;34.60;;
32096;SDS011;18610;49.916;8.284;2024-02-28T05:36:16;69.38;;;35.25;;
32096;SDS011;18610;49.916;8.284;2024-02-28T05:38:43;69.45;;;34.00;;
32096;SDS011;18610;49.916;8.284;2024-02-28T05:41:10;63.95;;;33.08;;
32096;SDS011;18610;49.916;8.284;2024-02-28T05:43:37;67.63;;;34.47;;
32096;SDS011;18610;49.916;8.284;2024-02-28T05:46:04;63.67;;;34.25;;
32096;SDS011;18610;49.916;8.284;2024-02-28T05:48:33;70.55;;;36.03;;
32096;SDS011;18610;49.916;8.284;2024-02-28T05:51:01;68.30;;;35.25;;
32096;SDS011;18610;49.916;8.284;2024-02-28T05:53:29;71.05;;;35.80;;
32096;SDS011;18610;49.916;8.284;2024-02-28T05:55:57;71.55;;;35.47;;
32096;SDS011;18610;49.916;8.284;2024-02-28T05:58:24;68.25;;;34.28;;
32096;SDS011;18610;49.916;8.284;2024-02-28T06:00:51;73.53;;;36.38;;
32096;SDS011;18610;49.916;8.284;2024-02-28T06:03:17;76.53;;;34.58;;
32096;SDS011;18610;49.916;8.284;2024-02-28T06:05:44;67.18;;;35.90;;
32096;SDS011;18610;49.916;8.284;2024-02-28T06:08:13;66.40;;;34.20;;
32096;SDS011;18610;49.916;8.284;2024-02-28T06:10:40;64.75;;;32.88;;
32096;SDS011;18610;49.916;8.284;2024-02-28T06:13:07;74.32;;;33.50;;
32096;SDS011;18610;49.916;8.284;2024-02-28T06:15:34;72.07;;;35.03;;
32096;SDS011;18610;49.916;8.284;2024-02-28T06:18:00;64.82;;;33.75;;
32096;SDS011;18610;49.916;8.284;2024-02-28T06:20:27;72.60;;;34.03;;
32096;SDS011;18610;49.916;8.284;2024-02-28T06:22:54;65.40;;;32.67;;
32096;SDS011;18610;49.916;8.284;2024-02-28T06:25:22;69.20;;;34.47;;
32096;SDS011;18610;49.916;8.284;2024-02-28T06:27:49;62.95;;;31.90;;
32096;SDS011;18610;49.916;8.284;2024-02-28T06:30:16;67.85;;;32.95;;
32096;SDS011;18610;49.916;8.284;2024-02-28T06:32:43;71.70;;;32.72;;
32096;SDS011;18610;49.916;8.284;2024-02-28T06:35:10;66.25;;;34.47;;
32096;SDS011;18610;49.916;8.284;2024-02-28T06:37:37;65.28;;;34.15;;
32096;SDS011;18610;49.916;8.284;2024-02-28T06:40:03;72.82;;;34.55;;
32096;SDS011;18610;49.916;8.284;2024-02-28T06:42:35;70.43;;;34.45;;
32096;SDS011;18610;49.916;8.284;2024-02-28T06:45:02;71.72;;;34.22;;
32096;SDS011;18610;49.916;8.284;2024-02-28T06:47:29;70.05;;;34.03;;
32096;SDS011;18610;49.916;8.284;2024-02-28T06:49:57;65.13;;;30.90;;
32096;SDS011;18610;49.916;8.284;2024-02-28T06:52:24;63.15;;;32.05;;
32096;SDS011;18610;49.916;8.284;2024-02-28T06:54:50;64.00;;;34.47;;
32096;SDS011;18610;49.916;8.284;2024-02-28T06:57:17;65.20;;;32.17;;
32096;SDS011;18610;49.916;8.284;2024-02-28T06:59:46;71.50;;;33.45;;
32096;SDS011;18610;49.916;8.284;2024-02-28T07:02:14;75.57;;;35.78;;
32096;SDS011;18610;49.916;8.284;2024-02-28T07:04:41;69.75;;;34.00;;
32096;SDS011;18610;49.916;8.284;2024-02-28T07:07:08;77.38;;;35.15;;
32096;SDS011;18610;49.916;8.284;2024-02-28T07:09:37;68.28;;;33.15;;
32096;SDS011;18610;49.916;8.284;2024-02-28T07:12:05;73.38;;;34.47;;
32096;SDS011;18610;49.916;8.284;2024-02-28T07:14:32;71.80;;;34.30;;
32096;SDS011;18610;49.916;8.284;2024-02-28T07:17:00;64.03;;;33.90;;
32096;SDS011;18610;49.916;8.284;2024-02-28T07:19:27;82.47;;;33.88;;
32096;SDS011;18610;49.916;8.284;2024-02-28T07:21:54;74.47;;;34.63;;
32096;SDS011;18610;49.916;8.284;2024-02-28T07:24:20;68.85;;;35.30;;
32096;SDS011;18610;49.916;8.284;2024-02-28T07:26:47;68.10;;;35.13;;
32096;SDS011;18610;49.916;8.284;2024-02-28T07:29:15;66.15;;;34.30;;
32096;SDS011;18610;49.916;8.284;2024-02-28T07:31:42;65.05;;;32.35;;
32096;SDS011;18610;49.916;8.284;2024-02-28T07:34:11;70.68;;;36.40;;
32096;SDS011;18610;49.916;8.284;2024-02-28T07:36:38;75.00;;;36.42;;
32096;SDS011;18610;49.916;8.284;2024-02-28T07:39:05;66.47;;;33.90;;
32096;SDS011;18610;49.916;8.284;2024-02-28T07:41:32;70.05;;;35.50;;
32096;SDS011;18610;49.916;8.284;2024-02-28T07:43:58;63.30;;;35.15;;
32096;SDS011;18610;49.916;8.284;2024-02-28T07:46:25;63.78;;;33.60;;
32096;SDS011;18610;49.916;8.284;2024-02-28T07:48:53;63.90;;;33.97;;
32096;SDS011;18610;49.916;8.284;2024-02-28T07:51:20;67.95;;;35.25;;
32096;SDS011;18610;49.916;8.284;2024-02-28T07:53:47;65.28;;;34.33;;
32096;SDS011;18610;49.916;8.284;2024-02-28T07:56:17;64.85;;;33.72;;
32096;SDS011;18610;49.916;8.284;2024-02-28T07:58:43;62.95;;;30.73;;
32096;SDS011;18610;49.916;8.284;2024-02-28T08:01:11;66.20;;;33.72;;
32096;SDS011;18610;49.916;8.284;2024-02-28T08:03:39;67.40;;;33.30;;
32096;SDS011;18610;49.916;8.284;2024-02-28T08:06:06;65.28;;;32.72;;
32096;SDS011;18610;49.916;8.284;2024-02-28T08:08:35;72.60;;;36.70;;
32096;SDS011;18610;49.916;8.284;2024-02-28T08:11:02;69.18;;;34.78;;
32096;SDS011;18610;49.916;8.284;2024-02-28T08:13:29;64.60;;;33.67;;
32096;SDS011;18610;49.916;8.284;2024-02-28T08:15:57;64.07;;;33.53;;
32096;SDS011;18610;49.916;8.284;2024-02-28T08:18:24;58.85;;;31.95;;
32096;SDS011;18610;49.916;8.284;2024-02-28T08:20:51;64.68;;;34.08;;
32096;SDS011;18610;49.916;8.284;2024-02-28T08:23:18;64.32;;;32.58;;
32096;SDS011;18610;49.916;8.284;2024-02-28T08:25:46;67.63;;;33.40;;
32096;SDS011;18610;49.916;8.284;2024-02-28T08:28:13;67.70;;;33.42;;
32096;SDS011;18610;49.916;8.284;2024-02-28T08:30:39;69.47;;;32.60;;
32096;SDS011;18610;49.916;8.284;2024-02-28T08:33:06;58.95;;;32.53;;
32096;SDS011;18610;49.916;8.284;2024-02-28T08:35:33;61.63;;;30.77;;
32096;SDS011;18610;49.916;8.284;2024-02-28T08:38:00;62.45;;;31.90;;
32096;SDS011;18610;49.916;8.284;2024-02-28T08:40:28;58.80;;;31.40;;
32096;SDS011;18610;49.916;8.284;2024-02-28T08:42:56;64.85;;;33.80;;
32096;SDS011;18610;49.916;8.284;2024-02-28T08:45:23;66.47;;;34.17;;
32096;SDS011;18610;49.916;8.284;2024-02-28T08:47:49;59.05;;;32.00;;
32096;SDS011;18610;49.916;8.284;2024-02-28T08:50:17;65.80;;;33.10;;
32096;SDS011;18610;49.916;8.284;2024-02-28T08:52:44;54.38;;;28.85;;
32096;SDS011;18610;49.916;8.284;2024-02-28T08:55:10;60.15;;;30.65;;
32096;SDS011;18610;49.916;8.284;2024-02-28T08:57:37;61.10;;;32.25;;
32096;SDS011;18610;49.916;8.284;2024-02-28T09:00:06;57.53;;;31.33;;
32096;SDS011;18610;49.916;8.284;2024-02-28T09:02:34;58.78;;;32.83;;
32096;SDS011;18610;49.916;8.284;2024-02-28T09:05:02;56.13;;;30.60;;
32096;SDS011;18610;49.916;8.284;2024-02-28T09:07:29;53.72;;;29.83;;
32096;SDS011;18610;49.916;8.284;2024-02-28T09:09:55;50.50;;;29.00;;
32096;SDS011;18610;49.916;8.284;2024-02-28T09:12:22;50.72;;;27.55;;
32096;SDS011;18610;49.916;8.284;2024-02-28T09:14:49;54.97;;;29.58;;
32096;SDS011;18610;49.916;8.284;2024-02-28T09:17:22;49.58;;;28.50;;
32096;SDS011;18610;49.916;8.284;2024-02-28T09:19:49;54.90;;;30.30;;
32096;SDS011;18610;49.916;8.284;2024-02-28T09:22:16;52.35;;;29.52;;
32096;SDS011;18610;49.916;8.284;2024-02-28T09:24:43;57.17;;;30.15;;
32096;SDS011;18610;49.916;8.284;2024-02-28T09:27:10;54.13;;;29.70;;
32096;SDS011;18610;49.916;8.284;2024-02-28T09:29:36;58.90;;;29.85;;
32096;SDS011;18610;49.916;8.284;2024-02-28T09:32:03;60.28;;;30.35;;
32096;SDS011;18610;49.916;8.284;2024-02-28T09:34:32;54.33;;;31.05;;
32096;SDS011;18610;49.916;8.284;2024-02-28T09:36:58;49.30;;;26.75;;
32096;SDS011;18610;49.916;8.284;2024-02-28T09:39:25;57.05;;;30.38;;
32096;SDS011;18610;49.916;8.284;2024-02-28T09:41:52;52.40;;;27.27;;
32096;SDS011;18610;49.916;8.284;2024-02-28T09:44:19;44.58;;;27.27;;
32096;SDS011;18610;49.916;8.284;2024-02-28T09:46:48;54.17;;;29.67;;
32096;SDS011;18610;49.916;8.284;2024-02-28T09:49:16;53.47;;;28.55;;
32096;SDS011;18610;49.916;8.284;2024-02-28T09:51:47;46.80;;;26.30;;
32096;SDS011;18610;49.916;8.284;2024-02-28T09:54:15;43.60;;;27.40;;
32096;SDS011;18610;49.916;8.284;2024-02-28T09:56:42;42.30;;;25.50;;
32096;SDS011;18610;49.916;8.284;2024-02-28T09:59:09;52.40;;;28.85;;
32096;SDS011;18610;49.916;8.284;2024-02-28T10:01:37;41.30;;;24.38;;
32096;SDS011;18610;49.916;8.284;2024-02-28T10:04:08;40.85;;;26.20;;
32096;SDS011;18610;49.916;8.284;2024-02-28T10:06:37;43.67;;;25.90;;
32096;SDS011;18610;49.916;8.284;2024-02-28T10:09:06;44.17;;;26.17;;
32096;SDS011;18610;49.916;8.284;2024-02-28T10:11:33;37.00;;;22.45;;
32096;SDS011;18610;49.916;8.284;2024-02-28T10:14:00;41.78;;;26.48;;
32096;SDS011;18610;49.916;8.284;2024-02-28T10:16:27;35.63;;;22.52;;
32096;SDS011;18610;49.916;8.284;2024-02-28T10:18:54;43.03;;;26.23;;
32096;SDS011;18610;49.916;8.284;2024-02-28T10:21:21;44.58;;;27.40;;
32096;SDS011;18610;49.916;8.284;2024-02-28T10:23:49;48.65;;;28.30;;
32096;SDS011;18610;49.916;8.284;2024-02-28T10:26:17;42.58;;;26.25;;
32096;SDS011;18610;49.916;8.284;2024-02-28T10:28:44;39.20;;;25.27;;
32096;SDS011;18610;49.916;8.284;2024-02-28T10:31:10;45.88;;;27.30;;
32096;SDS011;18610;49.916;8.284;2024-02-28T10:33:37;40.05;;;25.30;;
32096;SDS011;18610;49.916;8.284;2024-02-28T10:36:04;38.10;;;23.50;;
32096;SDS011;18610;49.916;8.284;2024-02-28T10:38:32;39.30;;;22.90;;
32096;SDS011;18610;49.916;8.284;2024-02-28T10:40:59;39.38;;;25.00;;
32096;SDS011;18610;49.916;8.284;2024-02-28T10:43:27;47.30;;;29.05;;
32096;SDS011;18610;49.916;8.284;2024-02-28T10:45:55;35.72;;;22.90;;
32096;SDS011;18610;49.916;8.284;2024-02-28T10:48:24;40.95;;;27.08;;
32096;SDS011;18610;49.916;8.284;2024-02-28T10:50:51;36.70;;;22.90;;
32096;SDS011;18610;49.916;8.284;2024-02-28T10:53:20;30.00;;;19.83;;
32096;SDS011;18610;49.916;8.284;2024-02-28T10:55:48;34.05;;;21.30;;
32096;SDS011;18610;49.916;8.284;2024-02-28T10:58:16;39.05;;;26.05;;
32096;SDS011;18610;49.916;8.284;2024-02-28T11:00:46;36.75;;;23.83;;
32096;SDS011;18610;49.916;8.284;2024-02-28T11:03:15;31.90;;;21.88;;
32096;SDS011;18610;49.916;8.284;2024-02-28T11:05:44;34.13;;;22.67;;
32096;SDS011;18610;49.916;8.284;2024-02-28T11:08:12;31.13;;;21.35;;
32096;SDS011;18610;49.916;8.284;2024-02-28T11:10:53;38.05;;;24.65;;
32096;SDS011;18610;49.916;8.284;2024-02-28T11:13:21;39.03;;;26.58;;
32096;SDS011;18610;49.916;8.284;2024-02-28T11:15:49;39.75;;;24.92;;
32096;SDS011;18610;49.916;8.284;2024-02-28T11:18:17;36.65;;;22.73;;
32096;SDS011;18610;49.916;8.284;2024-02-28T11:20:45;33.40;;;22.58;;
32096;SDS011;18610;49.916;8.284;2024-02-28T11:23:14;32.00;;;20.52;;
32096;SDS011;18610;49.916;8.284;2024-02-28T11:25:41;32.85;;;21.13;;
32096;SDS011;18610;49.916;8.284;2024-02-28T11:28:08;37.67;;;24.50;;
32096;SDS011;18610;49.916;8.284;2024-02-28T11:30:35;34.92;;;23.50;;
32096;SDS011;18610;49.916;8.284;2024-02-28T11:33:03;37.10;;;24.98;;
32096;SDS011;18610;49.916;8.284;2024-02-28T11:35:32;39.28;;;23.80;;
32096;SDS011;18610;49.916;8.284;2024-02-28T11:37:58;33.40;;;23.45;;
32096;SDS011;18610;49.916;8.284;2024-02-28T11:40:25;33.72;;;23.17;;
32096;SDS011;18610;49.916;8.284;2024-02-28T11:42:52;32.90;;;20.92;;
32096;SDS011;18610;49.916;8.284;2024-02-28T11:45:20;35.83;;;23.55;;
32096;SDS011;18610;49.916;8.284;2024-02-28T11:47:46;40.58;;;24.95;;
32096;SDS011;18610;49.916;8.284;2024-02-28T11:50:14;33.85;;;22.27;;
32096;SDS011;18610;49.916;8.284;2024-02-28T11:52:43;35.47;;;23.67;;
32096;SDS011;18610;49.916;8.284;2024-02-28T11:55:10;35.10;;;22.63;;
32096;SDS011;18610;49.916;8.284;2024-02-28T11:57:36;31.90;;;22.15;;
32096;SDS011;18610;49.916;8.284;2024-02-28T12:00:04;40.92;;;24.70;;
32096;SDS011;18610;49.916;8.284;2024-02-28T12:02:32;37.80;;;23.85;;
32096;SDS011;18610;49.916;8.284;2024-02-28T12:05:02;33.40;;;21.63;;
32096;SDS011;18610;49.916;8.284;2024-02-28T12:07:31;36.63;;;21.67;;
32096;SDS011;18610;49.916;8.284;2024-02-28T12:09:58;30.30;;;20.42;;
32096;SDS011;18610;49.916;8.284;2024-02-28T12:12:26;30.23;;;20.63;;
32096;SDS011;18610;49.916;8.284;2024-02-28T12:14:57;26.70;;;19.27;;
32096;SDS011;18610;49.916;8.284;2024-02-28T12:17:24;30.35;;;21.15;;
32096;SDS011;18610;49.916;8.284;2024-02-28T12:19:51;29.52;;;20.25;;
32096;SDS011;18610;49.916;8.284;2024-02-28T12:22:18;30.25;;;20.58;;
32096;SDS011;18610;49.916;8.284;2024-02-28T12:24:46;26.33;;;18.33;;
32096;SDS011;18610;49.916;8.284;2024-02-28T12:27:13;28.83;;;19.60;;
32096;SDS011;18610;49.916;8.284;2024-02-28T12:29:39;23.95;;;16.90;;
32096;SDS011;18610;49.916;8.284;2024-02-28T12:32:06;30.23;;;19.73;;
32096;SDS011;18610;49.916;8.284;2024-02-28T12:34:34;25.27;;;17.98;;
32096;SDS011;18610;49.916;8.284;2024-02-28T12:37:00;27.20;;;18.30;;
32096;SDS011;18610;49.916;8.284;2024-02-28T12:39:29;29.45;;;18.23;;
32096;SDS011;18610;49.916;8.284;2024-02-28T12:41:57;23.52;;;15.75;;
32096;SDS011;18610;49.916;8.284;2024-02-28T12:44:24;28.75;;;17.25;;
32096;SDS011;18610;49.916;8.284;2024-02-28T12:46:51;24.48;;;16.85;;
32096;SDS011;18610;49.916;8.284;2024-02-28T12:49:18;25.27;;;16.83;;
32096;SDS011;18610;49.916;8.284;2024-02-28T12:51:45;22.92;;;15.93;;
32096;SDS011;18610;49.916;8.284;2024-02-28T12:54:13;22.83;;;16.10;;
32096;SDS011;18610;49.916;8.284;2024-02-28T12:56:40;24.10;;;15.07;;
32096;SDS011;18610;49.916;8.284;2024-02-28T12:59:09;25.15;;;17.75;;
32096;SDS011;18610;49.916;8.284;2024-02-28T13:01:37;31.38;;;18.83;;
32096;SDS011;18610;49.916;8.284;2024-02-28T13:04:04;31.25;;;17.73;;
32096;SDS011;18610;49.916;8.284;2024-02-28T13:06:30;23.85;;;16.48;;
32096;SDS011;18610;49.916;8.284;2024-02-28T13:08:57;22.67;;;16.27;;
32096;SDS011;18610;49.916;8.284;2024-02-28T13:11:24;27.55;;;18.08;;
32096;SDS011;18610;49.916;8.284;2024-02-28T13:13:51;22.08;;;15.73;;
32096;SDS011;18610;49.916;8.284;2024-02-28T13:16:20;24.20;;;17.27;;
32096;SDS011;18610;49.916;8.284;2024-02-28T13:18:47;35.85;;;17.73;;
32096;SDS011;18610;49.916;8.284;2024-02-28T13:21:14;22.75;;;15.63;;
32096;SDS011;18610;49.916;8.284;2024-02-28T13:23:41;27.30;;;16.65;;
32096;SDS011;18610;49.916;8.284;2024-02-28T13:26:07;25.45;;;17.10;;
32096;SDS011;18610;49.916;8.284;2024-02-28T13:28:35;23.30;;;16.15;;
32096;SDS011;18610;49.916;8.284;2024-02-28T13:31:02;24.90;;;15.60;;
32096;SDS011;18610;49.916;8.284;2024-02-28T13:33:31;20.92;;;14.82;;
32096;SDS011;18610;49.916;8.284;2024-02-28T13:35:58;21.35;;;15.38;;
32096;SDS011;18610;49.916;8.284;2024-02-28T13:38:24;26.58;;;15.15;;
32096;SDS011;18610;49.916;8.284;2024-02-28T13:40:51;25.65;;;17.33;;
32096;SDS011;18610;49.916;8.284;2024-02-28T13:43:18;22.58;;;15.07;;
32096;SDS011;18610;49.916;8.284;2024-02-28T13:45:46;28.17;;;14.50;;
32096;SDS011;18610;49.916;8.284;2024-02-28T13:48:15;25.65;;;15.95;;
32096;SDS011;18610;49.916;8.284;2024-02-28T13:50:44;21.88;;;15.35;;
32096;SDS011;18610;49.916;8.284;2024-02-28T13:53:11;21.85;;;14.85;;
32096;SDS011;18610;49.916;8.284;2024-02-28T13:55:38;28.30;;;16.27;;
32096;SDS011;18610;49.916;8.284;2024-02-28T13:58:05;25.23;;;17.70;;
32096;SDS011;18610;49.916;8.284;2024-02-28T14:00:33;26.23;;;14.95;;
32096;SDS011;18610;49.916;8.284;2024-02-28T14:03:00;23.58;;;14.18;;
32096;SDS011;18610;49.916;8.284;2024-02-28T14:05:27;19.65;;;13.02;;
32096;SDS011;18610;49.916;8.284;2024-02-28T14:07:55;20.38;;;13.07;;
32096;SDS011;18610;49.916;8.284;2024-02-28T14:10:22;21.63;;;14.25;;
32096;SDS011;18610;49.916;8.284;2024-02-28T14:12:49;20.17;;;14.00;;
32096;SDS011;18610;49.916;8.284;2024-02-28T14:15:17;20.60;;;13.07;;
32096;SDS011;18610;49.916;8.284;2024-02-28T14:17:44;17.63;;;11.38;;
32096;SDS011;18610;49.916;8.284;2024-02-28T14:20:11;16.48;;;11.68;;